sensor_id;sensor_type;location;lat;lon;timestamp;temperature;humidity
68109;SHT30;54893;49.864;19.084;2022-07-06T00:04:58;16.65;97.44
68109;SHT30;54893;49.864;19.084;2022-07-06T00:09:58;16.62;96.81
68109;SHT30;54893;49.864;19.084;2022-07-06T00:14:59;16.65;96.95
68109;SHT30;54893;49.864;19.084;2022-07-06T00:19:59;16.65;97.00
68109;SHT30;54893;49.864;19.084;2022-07-06T00:25:00;16.63;97.38
68109;SHT30;54893;49.864;19.084;2022-07-06T00:30:00;16.52;96.68
68109;SHT30;54893;49.864;19.084;2022-07-06T00:35:00;16.58;96.37
68109;SHT30;54893;49.864;19.084;2022-07-06T00:40:01;16.49;96.74
68109;SHT30;54893;49.864;19.084;2022-07-06T00:45:01;16.38;97.08
68109;SHT30;54893;49.864;19.084;2022-07-06T00:50:03;16.38;97.08
68109;SHT30;54893;49.864;19.084;2022-07-06T00:55:27;16.21;96.61
68109;SHT30;54893;49.864;19.084;2022-07-06T01:00:28;16.12;96.23
68109;SHT30;54893;49.864;19.084;2022-07-06T01:05:29;16.07;95.98
68109;SHT30;54893;49.864;19.084;2022-07-06T01:10:29;16.07;95.94
68109;SHT30;54893;49.864;19.084;2022-07-06T01:15:30;16.11;95.71
68109;SHT30;54893;49.864;19.084;2022-07-06T01:20:30;16.09;96.49
68109;SHT30;54893;49.864;19.084;2022-07-06T01:25:30;16.21;97.22
68109;SHT30;54893;49.864;19.084;2022-07-06T01:30:32;16.29;96.47
68109;SHT30;54893;49.864;19.084;2022-07-06T01:35:34;16.26;96.48
68109;SHT30;54893;49.864;19.084;2022-07-06T01:40:35;16.22;96.81
68109;SHT30;54893;49.864;19.084;2022-07-06T01:45:35;16.29;96.33
68109;SHT30;54893;49.864;19.084;2022-07-06T01:50:36;16.31;96.24
68109;SHT30;54893;49.864;19.084;2022-07-06T01:55:36;16.18;96.42
68109;SHT30;54893;49.864;19.084;2022-07-06T02:00:36;16.14;96.91
68109;SHT30;54893;49.864;19.084;2022-07-06T02:05:37;16.12;96.85
68109;SHT30;54893;49.864;19.084;2022-07-06T02:10:37;16.07;97.02
68109;SHT30;54893;49.864;19.084;2022-07-06T02:15:37;16.08;96.60
68109;SHT30;54893;49.864;19.084;2022-07-06T02:20:38;16.08;96.86
68109;SHT30;54893;49.864;19.084;2022-07-06T02:25:38;16.04;96.72
68109;SHT30;54893;49.864;19.084;2022-07-06T02:30:38;16.01;97.02
68109;SHT30;54893;49.864;19.084;2022-07-06T02:35:39;16.02;96.95
68109;SHT30;54893;49.864;19.084;2022-07-06T02:40:42;16.02;96.95
68109;SHT30;54893;49.864;19.084;2022-07-06T02:45:43;15.98;97.14
68109;SHT30;54893;49.864;19.084;2022-07-06T02:50:43;15.94;97.46
68109;SHT30;54893;49.864;19.084;2022-07-06T02:55:43;15.85;97.40
68109;SHT30;54893;49.864;19.084;2022-07-06T03:00:44;15.85;97.22
68109;SHT30;54893;49.864;19.084;2022-07-06T03:05:44;15.88;97.15
68109;SHT30;54893;49.864;19.084;2022-07-06T03:10:46;16.01;96.17
68109;SHT30;54893;49.864;19.084;2022-07-06T03:15:47;16.05;95.87
68109;SHT30;54893;49.864;19.084;2022-07-06T03:20:47;16.02;95.98
68109;SHT30;54893;49.864;19.084;2022-07-06T03:25:48;15.97;96.36
68109;SHT30;54893;49.864;19.084;2022-07-06T03:30:48;16.01;96.33
68109;SHT30;54893;49.864;19.084;2022-07-06T03:35:48;16.01;96.57
68109;SHT30;54893;49.864;19.084;2022-07-06T03:40:49;16.11;96.17
68109;SHT30;54893;49.864;19.084;2022-07-06T03:45:49;16.08;95.94
68109;SHT30;54893;49.864;19.084;2022-07-06T03:50:49;16.02;96.15
68109;SHT30;54893;49.864;19.084;2022-07-06T03:55:50;16.04;96.42
68109;SHT30;54893;49.864;19.084;2022-07-06T04:01:09;16.17;96.11
68109;SHT30;54893;49.864;19.084;2022-07-06T04:06:10;16.29;95.86
68109;SHT30;54893;49.864;19.084;2022-07-06T04:11:10;16.32;95.61
68109;SHT30;54893;49.864;19.084;2022-07-06T04:16:10;16.33;95.39
68109;SHT30;54893;49.864;19.084;2022-07-06T04:21:11;16.35;95.22
68109;SHT30;54893;49.864;19.084;2022-07-06T04:26:12;16.41;94.96
68109;SHT30;54893;49.864;19.084;2022-07-06T04:31:12;16.35;94.84
68109;SHT30;54893;49.864;19.084;2022-07-06T04:36:15;16.31;95.27
68109;SHT30;54893;49.864;19.084;2022-07-06T04:41:15;16.36;94.95
68109;SHT30;54893;49.864;19.084;2022-07-06T04:46:16;16.31;95.19
68109;SHT30;54893;49.864;19.084;2022-07-06T04:51:16;16.22;95.59
68109;SHT30;54893;49.864;19.084;2022-07-06T04:56:17;16.31;95.51
68109;SHT30;54893;49.864;19.084;2022-07-06T05:01:17;16.26;95.70
68109;SHT30;54893;49.864;19.084;2022-07-06T05:06:17;16.28;95.34
68109;SHT30;54893;49.864;19.084;2022-07-06T05:11:20;16.32;94.66
68109;SHT30;54893;49.864;19.084;2022-07-06T05:16:21;16.24;94.68
68109;SHT30;54893;49.864;19.084;2022-07-06T05:21:21;16.42;94.40
68109;SHT30;54893;49.864;19.084;2022-07-06T05:26:22;16.65;93.85
68109;SHT30;54893;49.864;19.084;2022-07-06T05:31:22;16.71;93.74
68109;SHT30;54893;49.864;19.084;2022-07-06T05:36:22;16.76;93.45
68109;SHT30;54893;49.864;19.084;2022-07-06T05:41:23;16.83;92.90
68109;SHT30;54893;49.864;19.084;2022-07-06T05:46:23;16.85;92.93
68109;SHT30;54893;49.864;19.084;2022-07-06T05:51:23;17.07;92.39
68109;SHT30;54893;49.864;19.084;2022-07-06T05:56:24;17.17;92.80
68109;SHT30;54893;49.864;19.084;2022-07-06T06:01:24;17.27;92.47
68109;SHT30;54893;49.864;19.084;2022-07-06T06:06:25;17.13;92.51
68109;SHT30;54893;49.864;19.084;2022-07-06T06:11:26;17.34;92.11
68109;SHT30;54893;49.864;19.084;2022-07-06T06:16:26;17.49;91.56
68109;SHT30;54893;49.864;19.084;2022-07-06T06:21:27;17.54;91.11
68109;SHT30;54893;49.864;19.084;2022-07-06T06:26:27;17.66;90.19
68109;SHT30;54893;49.864;19.084;2022-07-06T06:31:27;17.80;88.55
68109;SHT30;54893;49.864;19.084;2022-07-06T06:36:28;18.07;88.26
68109;SHT30;54893;49.864;19.084;2022-07-06T06:41:28;18.49;87.59
68109;SHT30;54893;49.864;19.084;2022-07-06T06:46:28;18.96;86.76
68109;SHT30;54893;49.864;19.084;2022-07-06T06:51:29;19.24;85.21
68109;SHT30;54893;49.864;19.084;2022-07-06T06:56:29;18.79;85.21
68109;SHT30;54893;49.864;19.084;2022-07-06T07:01:29;18.05;87.22
68109;SHT30;54893;49.864;19.084;2022-07-06T07:06:30;17.66;87.99
68109;SHT30;54893;49.864;19.084;2022-07-06T07:11:31;17.40;89.20
68109;SHT30;54893;49.864;19.084;2022-07-06T07:16:31;17.59;88.96
68109;SHT30;54893;49.864;19.084;2022-07-06T07:21:32;17.43;89.43
68109;SHT30;54893;49.864;19.084;2022-07-06T07:26:32;18.00;87.00
68109;SHT30;54893;49.864;19.084;2022-07-06T07:31:33;18.22;86.67
68109;SHT30;54893;49.864;19.084;2022-07-06T07:36:33;18.31;85.38
68109;SHT30;54893;49.864;19.084;2022-07-06T07:41:34;18.25;85.71
68109;SHT30;54893;49.864;19.084;2022-07-06T07:46:34;18.12;86.20
68109;SHT30;54893;49.864;19.084;2022-07-06T07:51:35;17.95;86.44
68109;SHT30;54893;49.864;19.084;2022-07-06T07:56:35;17.49;85.02
68109;SHT30;54893;49.864;19.084;2022-07-06T08:01:35;17.00;86.18
68109;SHT30;54893;49.864;19.084;2022-07-06T08:06:36;16.72;87.64
68109;SHT30;54893;49.864;19.084;2022-07-06T08:11:36;16.65;87.95
68109;SHT30;54893;49.864;19.084;2022-07-06T08:16:37;16.63;87.83
68109;SHT30;54893;49.864;19.084;2022-07-06T08:21:37;17.02;87.13
68109;SHT30;54893;49.864;19.084;2022-07-06T08:26:37;18.05;84.87
68109;SHT30;54893;49.864;19.084;2022-07-06T08:31:38;18.68;82.93
68109;SHT30;54893;49.864;19.084;2022-07-06T08:36:38;19.50;80.34
68109;SHT30;54893;49.864;19.084;2022-07-06T08:41:41;19.54;79.14
68109;SHT30;54893;49.864;19.084;2022-07-06T08:46:43;19.28;79.55
68109;SHT30;54893;49.864;19.084;2022-07-06T08:51:44;18.77;80.61
68109;SHT30;54893;49.864;19.084;2022-07-06T08:56:45;18.86;80.11
68109;SHT30;54893;49.864;19.084;2022-07-06T09:01:45;18.59;80.60
68109;SHT30;54893;49.864;19.084;2022-07-06T09:06:47;18.71;79.41
68109;SHT30;54893;49.864;19.084;2022-07-06T09:11:49;18.66;78.90
68109;SHT30;54893;49.864;19.084;2022-07-06T09:17:02;18.76;78.02
68109;SHT30;54893;49.864;19.084;2022-07-06T09:22:05;19.00;78.07
68109;SHT30;54893;49.864;19.084;2022-07-06T09:27:06;19.63;76.77
68109;SHT30;54893;49.864;19.084;2022-07-06T09:32:06;19.71;76.46
68109;SHT30;54893;49.864;19.084;2022-07-06T09:37:07;19.93;74.72
68109;SHT30;54893;49.864;19.084;2022-07-06T09:42:07;20.69;74.52
68109;SHT30;54893;49.864;19.084;2022-07-06T09:47:11;21.19;70.87
68109;SHT30;54893;49.864;19.084;2022-07-06T09:52:12;20.88;70.55
68109;SHT30;54893;49.864;19.084;2022-07-06T09:57:13;20.56;69.38
68109;SHT30;54893;49.864;19.084;2022-07-06T10:02:14;21.00;69.64
68109;SHT30;54893;49.864;19.084;2022-07-06T10:07:15;20.26;70.24
68109;SHT30;54893;49.864;19.084;2022-07-06T10:12:17;20.53;70.17
68109;SHT30;54893;49.864;19.084;2022-07-06T10:17:18;21.46;67.52
68109;SHT30;54893;49.864;19.084;2022-07-06T10:22:20;21.67;67.73
68109;SHT30;54893;49.864;19.084;2022-07-06T10:27:21;21.42;67.28
68109;SHT30;54893;49.864;19.084;2022-07-06T10:32:23;21.10;67.44
68109;SHT30;54893;49.864;19.084;2022-07-06T10:37:26;20.90;67.81
68109;SHT30;54893;49.864;19.084;2022-07-06T10:42:46;20.90;68.88
68109;SHT30;54893;49.864;19.084;2022-07-06T10:53:14;20.83;69.45
68109;SHT30;54893;49.864;19.084;2022-07-06T10:58:15;20.86;69.28
68109;SHT30;54893;49.864;19.084;2022-07-06T11:03:34;22.04;63.79
68109;SHT30;54893;49.864;19.084;2022-07-06T11:09:01;22.41;63.96
68109;SHT30;54893;49.864;19.084;2022-07-06T11:19:10;22.04;63.43
68109;SHT30;54893;49.864;19.084;2022-07-06T11:24:24;21.43;64.03
68109;SHT30;54893;49.864;19.084;2022-07-06T11:29:27;21.80;64.21
68109;SHT30;54893;49.864;19.084;2022-07-06T11:34:29;22.42;61.81
68109;SHT30;54893;49.864;19.084;2022-07-06T11:39:31;22.69;62.05
68109;SHT30;54893;49.864;19.084;2022-07-06T11:44:33;22.59;60.43
68109;SHT30;54893;49.864;19.084;2022-07-06T11:49:35;22.08;63.11
68109;SHT30;54893;49.864;19.084;2022-07-06T11:54:36;21.77;62.99
68109;SHT30;54893;49.864;19.084;2022-07-06T11:59:39;21.54;64.21
68109;SHT30;54893;49.864;19.084;2022-07-06T12:04:42;22.00;63.86
68109;SHT30;54893;49.864;19.084;2022-07-06T12:09:44;22.31;62.88
68109;SHT30;54893;49.864;19.084;2022-07-06T12:14:44;22.05;62.21
68109;SHT30;54893;49.864;19.084;2022-07-06T12:19:52;21.74;64.56
68109;SHT30;54893;49.864;19.084;2022-07-06T12:24:54;21.80;64.14
68109;SHT30;54893;49.864;19.084;2022-07-06T12:30:08;21.63;64.73
68109;SHT30;54893;49.864;19.084;2022-07-06T12:35:10;21.73;64.23
68109;SHT30;54893;49.864;19.084;2022-07-06T12:40:12;21.54;65.87
68109;SHT30;54893;49.864;19.084;2022-07-06T12:45:13;21.88;63.78
68109;SHT30;54893;49.864;19.084;2022-07-06T12:50:13;21.84;63.72
68109;SHT30;54893;49.864;19.084;2022-07-06T12:55:14;22.34;63.87
68109;SHT30;54893;49.864;19.084;2022-07-06T13:00:16;22.66;63.70
68109;SHT30;54893;49.864;19.084;2022-07-06T13:05:17;22.85;61.44
68109;SHT30;54893;49.864;19.084;2022-07-06T13:10:18;22.94;62.72
68109;SHT30;54893;49.864;19.084;2022-07-06T13:15:18;22.73;64.30
68109;SHT30;54893;49.864;19.084;2022-07-06T13:20:19;22.69;63.16
68109;SHT30;54893;49.864;19.084;2022-07-06T13:25:19;22.65;62.93
68109;SHT30;54893;49.864;19.084;2022-07-06T13:30:20;22.78;62.94
68109;SHT30;54893;49.864;19.084;2022-07-06T13:35:21;22.86;63.29
68109;SHT30;54893;49.864;19.084;2022-07-06T13:40:21;22.86;62.54
68109;SHT30;54893;49.864;19.084;2022-07-06T13:45:22;23.09;61.65
68109;SHT30;54893;49.864;19.084;2022-07-06T13:50:23;22.75;62.00
68109;SHT30;54893;49.864;19.084;2022-07-06T13:55:25;22.92;61.99
68109;SHT30;54893;49.864;19.084;2022-07-06T14:00:26;23.53;60.79
68109;SHT30;54893;49.864;19.084;2022-07-06T14:05:28;23.78;57.39
68109;SHT30;54893;49.864;19.084;2022-07-06T14:10:28;25.19;51.07
68109;SHT30;54893;49.864;19.084;2022-07-06T14:15:29;27.09;48.44
68109;SHT30;54893;49.864;19.084;2022-07-06T14:20:29;27.74;46.31
68109;SHT30;54893;49.864;19.084;2022-07-06T14:25:29;28.21;44.45
68109;SHT30;54893;49.864;19.084;2022-07-06T14:30:30;29.10;42.07
68109;SHT30;54893;49.864;19.084;2022-07-06T14:35:30;29.45;41.91
68109;SHT30;54893;49.864;19.084;2022-07-06T14:40:31;29.80;41.11
68109;SHT30;54893;49.864;19.084;2022-07-06T14:45:32;30.05;40.83
68109;SHT30;54893;49.864;19.084;2022-07-06T14:50:32;30.60;40.77
68109;SHT30;54893;49.864;19.084;2022-07-06T14:55:33;31.14;39.22
68109;SHT30;54893;49.864;19.084;2022-07-06T15:00:33;31.18;37.90
68109;SHT30;54893;49.864;19.084;2022-07-06T15:05:33;31.75;38.51
68109;SHT30;54893;49.864;19.084;2022-07-06T15:10:34;32.46;38.31
68109;SHT30;54893;49.864;19.084;2022-07-06T15:15:35;33.31;37.87
68109;SHT30;54893;49.864;19.084;2022-07-06T15:20:36;33.33;35.72
68109;SHT30;54893;49.864;19.084;2022-07-06T15:25:36;33.17;34.94
68109;SHT30;54893;49.864;19.084;2022-07-06T15:30:36;32.87;33.58
68109;SHT30;54893;49.864;19.084;2022-07-06T15:35:38;31.39;36.81
68109;SHT30;54893;49.864;19.084;2022-07-06T15:40:38;29.67;38.55
68109;SHT30;54893;49.864;19.084;2022-07-06T15:45:42;27.41;42.68
68109;SHT30;54893;49.864;19.084;2022-07-06T15:50:42;28.75;40.83
68109;SHT30;54893;49.864;19.084;2022-07-06T15:55:42;25.60;46.61
68109;SHT30;54893;49.864;19.084;2022-07-06T16:00:43;24.78;47.06
68109;SHT30;54893;49.864;19.084;2022-07-06T16:05:44;23.73;48.41
68109;SHT30;54893;49.864;19.084;2022-07-06T16:10:44;22.56;51.01
68109;SHT30;54893;49.864;19.084;2022-07-06T16:15:45;22.59;50.92
68109;SHT30;54893;49.864;19.084;2022-07-06T16:20:45;22.61;53.90
68109;SHT30;54893;49.864;19.084;2022-07-06T16:25:46;26.26;48.54
68109;SHT30;54893;49.864;19.084;2022-07-06T16:30:46;26.04;49.51
68109;SHT30;54893;49.864;19.084;2022-07-06T16:35:47;22.84;56.75
68109;SHT30;54893;49.864;19.084;2022-07-06T16:40:48;22.45;58.49
68109;SHT30;54893;49.864;19.084;2022-07-06T16:45:48;21.57;60.27
68109;SHT30;54893;49.864;19.084;2022-07-06T16:50:51;20.61;62.66
68109;SHT30;54893;49.864;19.084;2022-07-06T16:55:51;19.53;66.12
68109;SHT30;54893;49.864;19.084;2022-07-06T17:00:52;19.39;65.95
68109;SHT30;54893;49.864;19.084;2022-07-06T17:05:52;18.96;66.40
68109;SHT30;54893;49.864;19.084;2022-07-06T17:10:52;19.16;64.96
68109;SHT30;54893;49.864;19.084;2022-07-06T17:15:53;19.07;65.20
68109;SHT30;54893;49.864;19.084;2022-07-06T17:20:53;18.92;65.68
68109;SHT30;54893;49.864;19.084;2022-07-06T17:25:53;18.99;65.13
68109;SHT30;54893;49.864;19.084;2022-07-06T17:30:58;18.91;65.45
68109;SHT30;54893;49.864;19.084;2022-07-06T17:35:59;18.92;65.34
68109;SHT30;54893;49.864;19.084;2022-07-06T17:41:00;18.65;66.55
68109;SHT30;54893;49.864;19.084;2022-07-06T17:46:00;18.51;67.05
68109;SHT30;54893;49.864;19.084;2022-07-06T17:51:01;18.41;67.82
68109;SHT30;54893;49.864;19.084;2022-07-06T17:56:01;18.45;67.55
68109;SHT30;54893;49.864;19.084;2022-07-06T18:01:02;18.41;69.09
68109;SHT30;54893;49.864;19.084;2022-07-06T18:06:02;18.37;69.35
68109;SHT30;54893;49.864;19.084;2022-07-06T18:11:04;18.22;68.26
68109;SHT30;54893;49.864;19.084;2022-07-06T18:16:05;18.21;68.60
68109;SHT30;54893;49.864;19.084;2022-07-06T18:21:07;18.52;68.06
68109;SHT30;54893;49.864;19.084;2022-07-06T18:26:09;18.17;69.07
68109;SHT30;54893;49.864;19.084;2022-07-06T18:31:31;17.95;69.34
68109;SHT30;54893;49.864;19.084;2022-07-06T18:36:31;17.91;69.92
68109;SHT30;54893;49.864;19.084;2022-07-06T18:41:32;17.80;71.19
68109;SHT30;54893;49.864;19.084;2022-07-06T18:46:32;17.70;71.47
68109;SHT30;54893;49.864;19.084;2022-07-06T18:51:32;17.51;71.95
68109;SHT30;54893;49.864;19.084;2022-07-06T18:56:34;17.36;71.92
68109;SHT30;54893;49.864;19.084;2022-07-06T19:01:34;17.13;73.19
68109;SHT30;54893;49.864;19.084;2022-07-06T19:06:35;16.86;73.05
68109;SHT30;54893;49.864;19.084;2022-07-06T19:11:35;16.80;73.26
68109;SHT30;54893;49.864;19.084;2022-07-06T19:16:37;16.86;74.33
68109;SHT30;54893;49.864;19.084;2022-07-06T19:21:38;16.93;76.33
68109;SHT30;54893;49.864;19.084;2022-07-06T19:26:38;16.92;76.38
68109;SHT30;54893;49.864;19.084;2022-07-06T19:31:39;16.96;76.17
68109;SHT30;54893;49.864;19.084;2022-07-06T19:36:39;16.96;76.78
68109;SHT30;54893;49.864;19.084;2022-07-06T19:41:41;16.86;77.33
68109;SHT30;54893;49.864;19.084;2022-07-06T19:46:42;16.79;77.32
68109;SHT30;54893;49.864;19.084;2022-07-06T19:51:44;16.80;74.55
68109;SHT30;54893;49.864;19.084;2022-07-06T19:56:45;16.72;75.08
68109;SHT30;54893;49.864;19.084;2022-07-06T20:01:45;16.75;74.41
68109;SHT30;54893;49.864;19.084;2022-07-06T20:06:46;16.66;76.55
68109;SHT30;54893;49.864;19.084;2022-07-06T20:11:46;16.59;76.07
68109;SHT30;54893;49.864;19.084;2022-07-06T20:16:47;16.58;72.81
68109;SHT30;54893;49.864;19.084;2022-07-06T20:21:48;16.44;73.41
68109;SHT30;54893;49.864;19.084;2022-07-06T20:26:48;16.22;76.06
68109;SHT30;54893;49.864;19.084;2022-07-06T20:31:49;16.02;77.43
68109;SHT30;54893;49.864;19.084;2022-07-06T20:36:49;15.78;77.32
68109;SHT30;54893;49.864;19.084;2022-07-06T20:41:50;15.51;78.24
68109;SHT30;54893;49.864;19.084;2022-07-06T20:46:51;15.33;79.10
68109;SHT30;54893;49.864;19.084;2022-07-06T20:51:51;15.24;78.95
68109;SHT30;54893;49.864;19.084;2022-07-06T20:56:52;15.20;78.56
68109;SHT30;54893;49.864;19.084;2022-07-06T21:01:52;15.19;77.73
68109;SHT30;54893;49.864;19.084;2022-07-06T21:06:53;15.10;79.39
68109;SHT30;54893;49.864;19.084;2022-07-06T21:11:54;14.97;76.70
68109;SHT30;54893;49.864;19.084;2022-07-06T21:16:54;15.06;76.00
68109;SHT30;54893;49.864;19.084;2022-07-06T21:21:54;14.92;78.28
68109;SHT30;54893;49.864;19.084;2022-07-06T21:26:55;14.77;78.89
68109;SHT30;54893;49.864;19.084;2022-07-06T21:31:55;14.56;80.54
68109;SHT30;54893;49.864;19.084;2022-07-06T21:36:56;14.48;80.48
68109;SHT30;54893;49.864;19.084;2022-07-06T21:41:57;14.42;80.64
68109;SHT30;54893;49.864;19.084;2022-07-06T21:46:57;14.36;82.73
68109;SHT30;54893;49.864;19.084;2022-07-06T21:51:57;14.31;80.93
68109;SHT30;54893;49.864;19.084;2022-07-06T21:56:58;14.31;81.39
68109;SHT30;54893;49.864;19.084;2022-07-06T22:01:58;14.18;81.11
68109;SHT30;54893;49.864;19.084;2022-07-06T22:06:59;14.09;82.07
68109;SHT30;54893;49.864;19.084;2022-07-06T22:11:59;13.98;82.76
68109;SHT30;54893;49.864;19.084;2022-07-06T22:17:00;14.01;80.06
68109;SHT30;54893;49.864;19.084;2022-07-06T22:22:00;13.97;80.41
68109;SHT30;54893;49.864;19.084;2022-07-06T22:27:01;13.89;80.76
68109;SHT30;54893;49.864;19.084;2022-07-06T22:32:01;13.88;82.70
68109;SHT30;54893;49.864;19.084;2022-07-06T22:37:02;14.01;80.35
68109;SHT30;54893;49.864;19.084;2022-07-06T22:42:03;14.15;80.76
68109;SHT30;54893;49.864;19.084;2022-07-06T22:47:03;14.20;79.30
68109;SHT30;54893;49.864;19.084;2022-07-06T22:52:04;14.32;77.63
68109;SHT30;54893;49.864;19.084;2022-07-06T22:57:04;14.31;79.40
68109;SHT30;54893;49.864;19.084;2022-07-06T23:02:05;14.25;78.28
68109;SHT30;54893;49.864;19.084;2022-07-06T23:07:07;14.12;79.68
68109;SHT30;54893;49.864;19.084;2022-07-06T23:12:08;14.04;78.95
68109;SHT30;54893;49.864;19.084;2022-07-06T23:17:08;13.91;79.37
68109;SHT30;54893;49.864;19.084;2022-07-06T23:22:09;13.78;81.40
68109;SHT30;54893;49.864;19.084;2022-07-06T23:27:09;13.58;80.53
68109;SHT30;54893;49.864;19.084;2022-07-06T23:32:09;13.44;81.25
68109;SHT30;54893;49.864;19.084;2022-07-06T23:37:10;13.26;81.85
68109;SHT30;54893;49.864;19.084;2022-07-06T23:42:10;13.16;82.49
68109;SHT30;54893;49.864;19.084;2022-07-06T23:47:11;13.10;82.28
68109;SHT30;54893;49.864;19.084;2022-07-06T23:52:12;13.10;80.29
68109;SHT30;54893;49.864;19.084;2022-07-06T23:57:12;13.34;81.90
